createdAt,value
2023-05-04T00:00:05.166Z,22.34
2023-05-04T00:01:04.885Z,22.34
2023-05-04T00:02:04.880Z,22.33
2023-05-04T00:03:04.974Z,22.34
2023-05-04T00:04:04.949Z,22.31
2023-05-04T00:05:04.871Z,22.32
2023-05-04T00:06:04.868Z,22.32
2023-05-04T00:07:04.872Z,22.32
2023-05-04T00:08:04.873Z,22.33
2023-05-04T00:09:04.869Z,22.32
2023-05-04T00:10:05.032Z,22.32
2023-05-04T00:11:04.881Z,22.33
2023-05-04T00:12:04.884Z,22.33
2023-05-04T00:13:04.920Z,22.32
2023-05-04T00:14:04.875Z,22.33
2023-05-04T00:15:04.881Z,22.34
2023-05-04T00:16:04.882Z,22.34
2023-05-04T00:17:04.889Z,22.35
2023-05-04T00:18:04.936Z,22.33
2023-05-04T00:19:04.915Z,22.34
2023-05-04T00:20:05.196Z,22.33
2023-05-04T00:21:04.932Z,22.33
2023-05-04T00:22:04.952Z,22.33
2023-05-04T00:23:04.942Z,22.33
2023-05-04T00:24:04.920Z,22.33
2023-05-04T00:25:04.936Z,22.33
2023-05-04T00:26:04.930Z,22.34
2023-05-04T00:27:04.925Z,22.34
2023-05-04T00:28:04.911Z,22.33
2023-05-04T00:29:04.906Z,22.33
2023-05-04T00:30:05.037Z,22.33
2023-05-04T00:31:04.911Z,22.34
2023-05-04T00:32:04.974Z,22.33
2023-05-04T00:33:04.992Z,22.34
2023-05-04T00:34:04.889Z,22.33
2023-05-04T00:35:04.927Z,22.33
2023-05-04T00:36:04.891Z,22.32
2023-05-04T00:37:04.890Z,22.32
2023-05-04T00:38:04.912Z,22.32
2023-05-04T00:39:04.897Z,22.31
2023-05-04T00:40:05.058Z,22.33
2023-05-04T00:41:04.897Z,22.31
2023-05-04T00:42:04.917Z,22.32
2023-05-04T00:43:04.895Z,22.32
2023-05-04T00:44:04.881Z,22.32
2023-05-04T00:45:04.888Z,22.31
2023-05-04T00:46:04.893Z,22.32
2023-05-04T00:47:04.938Z,22.31
2023-05-04T00:48:04.881Z,22.32
2023-05-04T00:49:04.877Z,22.32
2023-05-04T00:50:05.147Z,22.32
2023-05-04T00:51:04.878Z,22.31
2023-05-04T00:52:04.875Z,22.32
2023-05-04T00:53:04.882Z,22.33
2023-05-04T00:54:04.885Z,22.31
2023-05-04T00:55:04.887Z,22.32
2023-05-04T00:56:04.887Z,22.31
2023-05-04T00:57:04.898Z,22.30
2023-05-04T00:58:04.926Z,22.31
2023-05-04T00:59:04.982Z,22.30
2023-05-04T01:00:05.198Z,22.30
2023-05-04T01:01:05.036Z,22.29
2023-05-04T01:02:05.004Z,22.30
2023-05-04T01:03:05.154Z,22.29
2023-05-04T01:04:05.186Z,22.29
2023-05-04T01:05:05.070Z,22.29
2023-05-04T01:06:05.097Z,22.29
2023-05-04T01:07:05.141Z,22.29
2023-05-04T01:08:05.147Z,22.29
2023-05-04T01:09:05.164Z,22.29
2023-05-04T01:10:05.417Z,22.28
2023-05-04T01:11:05.208Z,22.29
2023-05-04T01:12:05.229Z,22.28
2023-05-04T01:13:05.303Z,22.28
2023-05-04T01:14:05.259Z,22.28
2023-05-04T01:15:05.271Z,22.29
2023-05-04T01:16:05.312Z,22.29
2023-05-04T01:17:05.557Z,22.29
2023-05-04T01:18:05.501Z,22.29
2023-05-04T01:19:05.456Z,22.29
2023-05-04T01:20:05.707Z,22.29
2023-05-04T01:21:05.522Z,22.29
2023-05-04T01:22:05.535Z,22.30
2023-05-04T01:23:05.563Z,22.29
2023-05-04T01:24:05.589Z,22.29
2023-05-04T01:25:05.645Z,22.29
2023-05-04T01:26:05.620Z,22.28
2023-05-04T01:27:05.639Z,22.27
2023-05-04T01:28:05.640Z,22.29
2023-05-04T01:29:05.680Z,22.28
2023-05-04T01:30:05.900Z,22.28
2023-05-04T01:31:05.702Z,22.28
2023-05-04T01:32:05.707Z,22.27
2023-05-04T01:33:05.709Z,22.27
2023-05-04T01:34:05.673Z,22.28
2023-05-04T01:35:05.654Z,22.28
2023-05-04T01:36:05.669Z,22.27
2023-05-04T01:37:05.689Z,22.27
2023-05-04T01:38:05.700Z,22.26
2023-05-04T01:39:05.721Z,22.26
2023-05-04T01:40:05.872Z,22.26
2023-05-04T01:41:05.702Z,22.27
2023-05-04T01:42:05.693Z,22.26
2023-05-04T01:43:05.682Z,22.26
2023-05-04T01:44:05.681Z,22.26
2023-05-04T01:45:05.715Z,22.26
2023-05-04T01:46:05.725Z,22.25
2023-05-04T01:47:05.701Z,22.26
2023-05-04T01:48:05.745Z,22.26
2023-05-04T01:49:05.742Z,22.26
2023-05-04T01:50:05.961Z,22.26
2023-05-04T01:51:05.741Z,22.26
2023-05-04T01:52:05.782Z,22.26
2023-05-04T01:53:05.793Z,22.26
2023-05-04T01:54:05.819Z,22.26
2023-05-04T01:55:05.841Z,22.26
2023-05-04T01:56:05.860Z,22.26
2023-05-04T01:57:05.863Z,22.26
2023-05-04T01:58:05.860Z,22.26
2023-05-04T01:59:05.890Z,22.25
2023-05-04T02:00:06.315Z,22.25
2023-05-04T02:01:05.925Z,22.25
2023-05-04T02:02:05.956Z,22.26
2023-05-04T02:03:06.046Z,22.26
2023-05-04T02:04:06.046Z,22.25
2023-05-04T02:05:05.951Z,22.25
2023-05-04T02:06:05.977Z,22.25
2023-05-04T02:07:05.991Z,22.24
2023-05-04T02:08:05.997Z,22.25
2023-05-04T02:09:06.013Z,22.25
2023-05-04T02:10:06.184Z,22.24
2023-05-04T02:11:06.029Z,22.23
2023-05-04T02:12:06.085Z,22.24
2023-05-04T02:13:06.056Z,22.24
2023-05-04T02:14:06.050Z,22.25
2023-05-04T02:15:06.059Z,22.23
2023-05-04T02:16:06.086Z,22.24
2023-05-04T02:17:06.165Z,22.23
2023-05-04T02:18:06.172Z,22.23
2023-05-04T02:19:06.133Z,22.23
2023-05-04T02:20:06.406Z,22.24
2023-05-04T02:21:06.177Z,22.23
2023-05-04T02:22:06.203Z,22.23
2023-05-04T02:23:06.229Z,22.24
2023-05-04T02:24:06.261Z,22.24
2023-05-04T02:25:06.232Z,22.24
2023-05-04T02:26:06.228Z,22.24
2023-05-04T02:27:06.247Z,22.23
2023-05-04T02:28:06.260Z,22.23
2023-05-04T02:29:06.270Z,22.23
2023-05-04T02:30:06.536Z,22.24
2023-05-04T02:31:06.364Z,22.23
2023-05-04T02:32:06.347Z,22.24
2023-05-04T02:33:06.309Z,22.23
2023-05-04T02:34:06.285Z,22.22
2023-05-04T02:35:06.314Z,22.23
2023-05-04T02:36:06.316Z,22.23
2023-05-04T02:37:07.582Z,22.23
2023-05-04T02:38:06.301Z,22.23
2023-05-04T02:39:06.319Z,22.22
2023-05-04T02:40:06.629Z,22.22
2023-05-04T02:41:06.346Z,22.21
2023-05-04T02:42:06.350Z,22.23
2023-05-04T02:43:06.356Z,22.22
2023-05-04T02:44:06.383Z,22.23
2023-05-04T02:45:06.380Z,22.22
2023-05-04T02:46:06.412Z,22.22
2023-05-04T02:47:06.402Z,22.22
2023-05-04T02:48:06.444Z,22.22
2023-05-04T02:49:06.427Z,22.22
2023-05-04T02:50:06.690Z,22.21
2023-05-04T02:51:06.442Z,22.21
2023-05-04T02:52:06.458Z,22.22
2023-05-04T02:53:06.465Z,22.21
2023-05-04T02:54:06.463Z,22.21
2023-05-04T02:55:06.462Z,22.21
2023-05-04T02:56:06.445Z,22.21
2023-05-04T02:57:06.453Z,22.21
2023-05-04T02:58:06.445Z,22.20
2023-05-04T02:59:06.486Z,22.21
2023-05-04T03:00:06.730Z,22.22
2023-05-04T03:01:06.491Z,22.22
2023-05-04T03:02:06.464Z,22.22
2023-05-04T03:03:06.497Z,22.21
2023-05-04T03:04:06.511Z,22.21
2023-05-04T03:05:06.582Z,22.21
2023-05-04T03:06:06.484Z,22.21
2023-05-04T03:07:06.490Z,22.21
2023-05-04T03:08:06.487Z,22.21
2023-05-04T03:09:06.489Z,22.21
2023-05-04T03:10:06.775Z,22.21
2023-05-04T03:11:06.500Z,22.21
2023-05-04T03:12:06.511Z,22.21
2023-05-04T03:13:06.564Z,22.21
2023-05-04T03:14:06.527Z,22.21
2023-05-04T03:15:06.514Z,22.20
2023-05-04T03:16:06.526Z,22.20
2023-05-04T03:17:06.535Z,22.20
2023-05-04T03:18:06.567Z,22.20
2023-05-04T03:19:06.547Z,22.20
2023-05-04T03:20:06.790Z,22.20
2023-05-04T03:21:06.552Z,22.20
2023-05-04T03:22:06.537Z,22.20
2023-05-04T03:23:06.539Z,22.19
2023-05-04T03:24:06.541Z,22.19
2023-05-04T03:25:06.532Z,22.20
2023-05-04T03:26:06.522Z,22.20
2023-05-04T03:27:06.536Z,22.20
2023-05-04T03:28:06.518Z,22.19
2023-05-04T03:29:06.522Z,22.20
2023-05-04T03:30:06.777Z,22.20
2023-05-04T03:31:06.529Z,22.20
2023-05-04T03:32:06.645Z,22.19
2023-05-04T03:33:06.574Z,22.20
2023-05-04T03:34:06.514Z,22.19
2023-05-04T03:35:06.509Z,22.19
2023-05-04T03:36:06.519Z,22.18
2023-05-04T03:37:06.548Z,22.19
2023-05-04T03:38:06.559Z,22.17
2023-05-04T03:39:06.550Z,22.18
2023-05-04T03:40:06.786Z,22.18
2023-05-04T03:41:06.545Z,22.18
2023-05-04T03:42:06.579Z,22.19
2023-05-04T03:43:06.574Z,22.19
2023-05-04T03:44:06.593Z,22.17
2023-05-04T03:45:06.582Z,22.17
2023-05-04T03:46:06.698Z,22.17
2023-05-04T03:47:06.625Z,22.18
2023-05-04T03:48:06.700Z,22.18
2023-05-04T03:49:06.665Z,22.17
2023-05-04T03:50:07.011Z,22.18
2023-05-04T03:51:06.752Z,22.17
2023-05-04T03:52:06.782Z,22.18
2023-05-04T03:53:06.832Z,22.19
2023-05-04T03:54:06.723Z,22.17
2023-05-04T03:55:06.749Z,22.17
2023-05-04T03:56:06.774Z,22.17
2023-05-04T03:57:06.768Z,22.17
2023-05-04T03:58:06.784Z,22.17
2023-05-04T03:59:06.797Z,22.18
2023-05-04T04:00:07.049Z,22.18
2023-05-04T04:01:06.814Z,22.17
2023-05-04T04:02:06.888Z,22.18
2023-05-04T04:03:06.930Z,22.18
2023-05-04T04:04:06.904Z,22.18
2023-05-04T04:05:06.869Z,22.17
2023-05-04T04:06:06.899Z,22.17
2023-05-04T04:07:06.886Z,22.17
2023-05-04T04:08:06.914Z,22.17
2023-05-04T04:09:06.901Z,22.18
2023-05-04T04:10:07.129Z,22.18
2023-05-04T04:11:06.945Z,22.18
2023-05-04T04:12:06.927Z,22.18
2023-05-04T04:13:06.972Z,22.18
2023-05-04T04:14:06.944Z,22.17
2023-05-04T04:15:06.944Z,22.18
2023-05-04T04:16:07.028Z,22.18
2023-05-04T04:17:06.966Z,22.18
2023-05-04T04:18:07.048Z,22.18
2023-05-04T04:19:06.933Z,22.17
2023-05-04T04:20:07.105Z,22.17
2023-05-04T04:21:06.930Z,22.18
2023-05-04T04:22:06.918Z,22.18
2023-05-04T04:23:06.901Z,22.18
2023-05-04T04:24:06.902Z,22.18
2023-05-04T04:25:06.899Z,22.18
2023-05-04T04:26:06.891Z,22.18
2023-05-04T04:27:06.893Z,22.18
2023-05-04T04:28:06.881Z,22.18
2023-05-04T04:29:06.883Z,22.18
2023-05-04T04:30:07.043Z,22.18
2023-05-04T04:31:06.894Z,22.18
2023-05-04T04:32:06.900Z,22.18
2023-05-04T04:33:06.913Z,22.18
2023-05-04T04:34:06.869Z,22.18
2023-05-04T04:35:06.888Z,22.19
2023-05-04T04:36:06.871Z,22.19
2023-05-04T04:37:06.894Z,22.19
2023-05-04T04:38:06.877Z,22.18
2023-05-04T04:39:06.866Z,22.19
2023-05-04T04:40:06.943Z,22.19
2023-05-04T04:41:06.868Z,22.19
2023-05-04T04:42:06.865Z,22.20
2023-05-04T04:43:06.869Z,22.20
2023-05-04T04:44:06.861Z,22.21
2023-05-04T04:45:06.846Z,22.20
2023-05-04T04:46:06.844Z,22.21
2023-05-04T04:47:06.908Z,22.21
2023-05-04T04:48:07.192Z,22.22
2023-05-04T04:49:06.848Z,22.22
2023-05-04T04:50:06.982Z,22.21
2023-05-04T04:51:06.853Z,22.21
2023-05-04T04:52:06.855Z,22.20
2023-05-04T04:53:06.850Z,22.20
2023-05-04T04:54:06.854Z,22.21
2023-05-04T04:55:06.852Z,22.21
2023-05-04T04:56:06.867Z,22.20
2023-05-04T04:57:06.879Z,22.20
2023-05-04T04:58:06.892Z,22.21
2023-05-04T04:59:06.901Z,22.21
2023-05-04T05:00:07.052Z,22.22
2023-05-04T05:01:06.917Z,22.22
2023-05-04T05:02:06.901Z,22.21
2023-05-04T05:03:06.932Z,22.21
2023-05-04T05:04:06.904Z,22.21
2023-05-04T05:05:07.081Z,22.22
2023-05-04T05:06:06.903Z,22.21
2023-05-04T05:07:06.908Z,22.22
2023-05-04T05:08:06.936Z,22.22
2023-05-04T05:09:06.905Z,22.22
2023-05-04T05:10:07.190Z,22.22
2023-05-04T05:11:06.896Z,22.22
2023-05-04T05:12:06.890Z,22.23
2023-05-04T05:13:06.950Z,22.23
2023-05-04T05:14:06.890Z,22.23
2023-05-04T05:15:06.887Z,22.23
2023-05-04T05:16:06.976Z,22.23
2023-05-04T05:17:06.940Z,22.22
2023-05-04T05:18:06.979Z,22.22
2023-05-04T05:19:06.866Z,22.22
2023-05-04T05:20:06.996Z,22.23
2023-05-04T05:21:06.861Z,22.23
2023-05-04T05:22:06.880Z,22.23
2023-05-04T05:23:06.874Z,22.22
2023-05-04T05:24:06.846Z,22.22
2023-05-04T05:25:06.875Z,22.22
2023-05-04T05:26:06.851Z,22.23
2023-05-04T05:27:06.837Z,22.23
2023-05-04T05:28:06.842Z,22.23
2023-05-04T05:29:06.866Z,22.23
2023-05-04T05:30:07.203Z,22.24
2023-05-04T05:31:06.903Z,22.23
2023-05-04T05:32:06.851Z,22.24
2023-05-04T05:33:06.942Z,22.24
2023-05-04T05:34:06.815Z,22.24
2023-05-04T05:35:06.855Z,22.23
2023-05-04T05:36:06.847Z,22.25
2023-05-04T05:37:06.832Z,22.27
2023-05-04T05:38:06.840Z,22.32
2023-05-04T05:39:06.810Z,22.39
2023-05-04T05:40:07.029Z,22.44
2023-05-04T05:41:06.848Z,22.49
2023-05-04T05:42:06.796Z,22.53
2023-05-04T05:43:06.814Z,22.56
2023-05-04T05:44:06.808Z,22.59
2023-05-04T05:45:06.885Z,22.61
2023-05-04T05:46:07.063Z,22.64
2023-05-04T05:47:07.000Z,22.69
2023-05-04T05:48:07.106Z,22.71
2023-05-04T05:49:07.075Z,22.75
2023-05-04T05:50:07.289Z,22.78
2023-05-04T05:51:07.157Z,22.82
2023-05-04T05:52:07.195Z,22.85
2023-05-04T05:53:08.205Z,22.86
2023-05-04T05:54:07.347Z,22.88
2023-05-04T05:55:07.283Z,22.88
2023-05-04T05:56:07.333Z,22.89
2023-05-04T05:57:07.374Z,22.88
2023-05-04T05:58:07.409Z,22.89
2023-05-04T05:59:07.436Z,22.90
2023-05-04T06:00:07.633Z,22.92
2023-05-04T06:01:07.575Z,22.93
2023-05-04T06:02:07.726Z,22.93
2023-05-04T06:03:07.764Z,22.94
2023-05-04T06:04:07.742Z,22.95
2023-05-04T06:05:07.786Z,22.95
2023-05-04T06:06:07.696Z,22.97
2023-05-04T06:07:07.749Z,23.00
2023-05-04T06:08:07.736Z,23.01
2023-05-04T06:09:07.775Z,23.03
2023-05-04T06:10:08.083Z,23.05
2023-05-04T06:11:07.826Z,23.06
2023-05-04T06:12:07.872Z,23.08
2023-05-04T06:13:07.959Z,23.11
2023-05-04T06:14:07.866Z,23.13
2023-05-04T06:15:07.874Z,23.14
2023-05-04T06:16:08.357Z,23.16
2023-05-04T06:17:07.915Z,23.16
2023-05-04T06:18:07.989Z,23.19
2023-05-04T06:19:07.912Z,23.20
2023-05-04T06:20:08.000Z,23.21
2023-05-04T06:21:08.030Z,23.23
2023-05-04T06:22:07.919Z,23.24
2023-05-04T06:23:07.933Z,23.25
2023-05-04T06:24:07.927Z,23.27
2023-05-04T06:25:08.423Z,23.28
2023-05-04T06:26:07.955Z,23.31
2023-05-04T06:27:07.923Z,23.47
2023-05-04T06:28:08.063Z,23.80
2023-05-04T06:29:08.006Z,24.18
2023-05-04T06:30:08.269Z,24.52
2023-05-04T06:31:07.965Z,24.80
2023-05-04T06:32:07.985Z,25.03
2023-05-04T06:33:07.930Z,25.22
2023-05-04T06:34:07.906Z,25.35
2023-05-04T06:35:07.821Z,25.45
2023-05-04T06:36:07.795Z,25.57
2023-05-04T06:37:07.737Z,25.67
2023-05-04T06:38:07.797Z,25.77
2023-05-04T06:39:07.679Z,25.84
2023-05-04T06:40:07.685Z,25.84
2023-05-04T06:41:07.641Z,25.88
2023-05-04T06:42:07.541Z,25.91
2023-05-04T06:43:07.513Z,25.96
2023-05-04T06:44:07.564Z,26.01
2023-05-04T06:45:07.443Z,26.02
2023-05-04T06:46:07.385Z,26.02
2023-05-04T06:47:07.353Z,26.01
2023-05-04T06:48:07.768Z,25.97
2023-05-04T06:49:07.240Z,25.91
2023-05-04T06:50:07.223Z,25.88
2023-05-04T06:51:07.157Z,25.88
2023-05-04T06:52:07.116Z,25.87
2023-05-04T06:53:07.097Z,25.84
2023-05-04T06:54:07.025Z,25.82
2023-05-04T06:55:07.737Z,25.80
2023-05-04T06:56:06.915Z,25.75
2023-05-04T06:57:06.879Z,25.69
2023-05-04T06:58:06.954Z,25.65
2023-05-04T06:59:06.783Z,25.63
2023-05-04T07:00:06.901Z,25.58
2023-05-04T07:01:06.807Z,25.54
2023-05-04T07:02:06.814Z,25.51
2023-05-04T07:03:06.790Z,25.49
2023-05-04T07:04:06.885Z,25.45
2023-05-04T07:05:06.709Z,25.42
2023-05-04T07:06:06.664Z,25.38
2023-05-04T07:07:06.651Z,25.36
2023-05-04T07:08:06.599Z,25.23
2023-05-04T07:09:06.582Z,24.58
2023-05-04T07:10:06.756Z,23.54
2023-05-04T07:11:06.529Z,23.32
2023-05-04T07:12:06.578Z,23.32
2023-05-04T07:13:06.671Z,23.20
2023-05-04T07:14:07.870Z,23.15
2023-05-04T07:15:06.664Z,23.05
2023-05-04T07:16:06.711Z,23.05
2023-05-04T07:17:06.708Z,22.87
2023-05-04T07:18:06.789Z,22.71
2023-05-04T07:19:06.727Z,22.58
2023-05-04T07:20:06.965Z,22.54
2023-05-04T07:21:26.086Z,22.67
2023-05-04T07:22:08.106Z,22.82
2023-05-04T07:23:06.694Z,22.98
2023-05-04T07:24:06.692Z,23.12
2023-05-04T07:25:06.722Z,23.25
2023-05-04T07:26:06.693Z,23.36
2023-05-04T07:27:06.675Z,23.49
2023-05-04T07:28:07.245Z,23.61
2023-05-04T07:29:06.645Z,23.70
2023-05-04T07:30:06.832Z,23.78
2023-05-04T07:31:06.677Z,23.80
2023-05-04T07:32:06.646Z,23.84
2023-05-04T07:33:06.647Z,23.84
2023-05-04T07:34:06.669Z,23.87
2023-05-04T07:35:06.628Z,23.88
2023-05-04T07:36:06.695Z,23.80
2023-05-04T07:37:06.741Z,23.77
2023-05-04T07:38:06.539Z,23.75
2023-05-04T07:39:06.540Z,23.73
2023-05-04T07:40:06.887Z,23.73
2023-05-04T07:41:06.509Z,23.71
2023-05-04T07:42:06.510Z,23.71
2023-05-04T07:43:06.620Z,23.72
2023-05-04T07:44:06.515Z,23.73
2023-05-04T07:45:06.542Z,23.74
2023-05-04T07:46:06.557Z,23.75
2023-05-04T07:47:06.519Z,23.76
2023-05-04T07:48:06.550Z,23.77
2023-05-04T07:49:06.488Z,23.78
2023-05-04T07:50:06.678Z,23.78
2023-05-04T07:51:06.486Z,23.79
2023-05-04T07:52:06.477Z,23.81
2023-05-04T07:53:06.474Z,23.81
2023-05-04T07:54:06.475Z,23.81
2023-05-04T07:55:06.510Z,23.83
2023-05-04T07:56:06.574Z,23.83
2023-05-04T07:57:06.638Z,23.83
2023-05-04T07:58:06.745Z,23.83
2023-05-04T07:59:06.721Z,23.84
2023-05-04T08:00:06.879Z,23.84
2023-05-04T08:01:06.830Z,23.84
2023-05-04T08:02:06.793Z,23.84
2023-05-04T08:03:06.781Z,23.85
2023-05-04T08:04:06.692Z,23.85
2023-05-04T08:05:06.702Z,23.85
2023-05-04T08:06:06.726Z,23.85
2023-05-04T08:07:06.771Z,23.85
2023-05-04T08:08:06.658Z,23.85
2023-05-04T08:09:06.707Z,23.86
2023-05-04T08:10:06.727Z,23.86
2023-05-04T08:11:19.390Z,23.86
2023-05-04T08:12:07.603Z,23.86
2023-05-04T08:13:06.620Z,23.88
2023-05-04T08:14:06.577Z,23.88
2023-05-04T08:15:06.796Z,23.88
2023-05-04T08:16:06.545Z,23.89
2023-05-04T08:17:06.534Z,23.90
2023-05-04T08:18:06.541Z,23.91
2023-05-04T08:19:06.586Z,23.92
2023-05-04T08:20:06.495Z,23.92
2023-05-04T08:21:06.490Z,23.92
2023-05-04T08:22:06.435Z,23.93
2023-05-04T08:23:06.453Z,23.93
2023-05-04T08:24:06.408Z,23.94
2023-05-04T08:25:06.577Z,24.00
2023-05-04T08:26:06.382Z,24.09
2023-05-04T08:27:08.925Z,24.16
2023-05-04T08:28:06.357Z,24.18
2023-05-04T08:29:06.327Z,24.21
2023-05-04T08:30:06.390Z,24.22
2023-05-04T08:31:06.268Z,24.23
2023-05-04T08:32:06.379Z,24.22
2023-05-04T08:33:06.339Z,24.22
2023-05-04T08:34:06.817Z,24.21
2023-05-04T08:35:06.292Z,24.20
2023-05-04T08:36:06.168Z,24.21
2023-05-04T08:37:06.203Z,24.20
2023-05-04T08:38:06.208Z,24.20
2023-05-04T08:39:06.122Z,24.19
2023-05-04T08:40:06.208Z,24.19
2023-05-04T08:41:06.206Z,24.19
2023-05-04T08:42:06.053Z,24.19
2023-05-04T08:43:06.049Z,24.18
2023-05-04T08:44:06.015Z,24.17
2023-05-04T08:45:06.250Z,24.16
2023-05-04T08:46:06.097Z,24.15
2023-05-04T08:47:06.026Z,24.15
2023-05-04T08:48:06.231Z,24.15
2023-05-04T08:49:05.954Z,24.13
2023-05-04T08:50:05.957Z,24.16
2023-05-04T08:51:05.935Z,24.16
2023-05-04T08:52:05.921Z,24.20
2023-05-04T08:53:05.974Z,24.23
2023-05-04T08:54:06.036Z,24.25
2023-05-04T08:55:06.297Z,24.25
2023-05-04T08:56:06.147Z,24.22
2023-05-04T08:57:06.252Z,24.18
2023-05-04T08:58:06.232Z,24.15
2023-05-04T08:59:06.248Z,24.14
2023-05-04T09:00:06.321Z,24.15
2023-05-04T09:01:06.577Z,24.15
2023-05-04T09:02:06.710Z,24.17
2023-05-04T09:03:06.603Z,24.17
2023-05-04T09:04:06.556Z,24.17
2023-05-04T09:05:06.690Z,24.18
2023-05-04T09:06:06.582Z,24.19
2023-05-04T09:07:06.602Z,24.20
2023-05-04T09:08:06.688Z,24.20
2023-05-04T09:09:06.732Z,24.20
2023-05-04T09:10:08.264Z,24.22
2023-05-04T09:11:06.824Z,24.23
2023-05-04T09:12:06.840Z,24.21
2023-05-04T09:13:06.895Z,24.22
2023-05-04T09:14:06.924Z,24.22
2023-05-04T09:15:07.063Z,24.23
2023-05-04T09:16:06.878Z,24.21
2023-05-04T09:17:06.941Z,24.22
2023-05-04T09:18:06.920Z,24.22
2023-05-04T09:19:06.859Z,24.22
2023-05-04T09:20:06.859Z,24.24
2023-05-04T09:21:06.813Z,24.26
2023-05-04T09:22:06.864Z,24.29
2023-05-04T09:23:06.810Z,24.32
2023-05-04T09:24:06.800Z,24.36
2023-05-04T09:25:06.867Z,24.39
2023-05-04T09:26:07.326Z,24.41
2023-05-04T09:27:06.802Z,24.44
2023-05-04T09:28:06.788Z,24.47
2023-05-04T09:29:06.815Z,24.50
2023-05-04T09:30:06.819Z,24.53
2023-05-04T09:31:06.847Z,24.55
2023-05-04T09:32:06.799Z,24.58
2023-05-04T09:33:06.820Z,24.59
2023-05-04T09:34:06.837Z,24.61
2023-05-04T09:35:07.051Z,24.63
2023-05-04T09:36:06.815Z,24.64
2023-05-04T09:37:06.844Z,24.67
2023-05-04T09:38:06.840Z,24.68
2023-05-04T09:39:06.840Z,24.70
2023-05-04T09:40:06.794Z,24.71
2023-05-04T09:41:06.752Z,24.71
2023-05-04T09:42:06.733Z,24.71
2023-05-04T09:43:06.752Z,24.72
2023-05-04T09:44:06.722Z,24.72
2023-05-04T09:45:06.969Z,24.71
2023-05-04T09:46:06.707Z,24.71
2023-05-04T09:47:06.627Z,24.70
2023-05-04T09:48:06.618Z,24.66
2023-05-04T09:49:06.586Z,24.63
2023-05-04T09:50:06.562Z,24.60
2023-05-04T09:51:06.554Z,24.56
2023-05-04T09:52:06.566Z,24.53
2023-05-04T09:53:06.525Z,24.51
2023-05-04T09:54:06.503Z,24.49
2023-05-04T09:55:06.730Z,24.46
2023-05-04T09:56:08.126Z,24.45
2023-05-04T09:57:06.546Z,24.45
2023-05-04T09:58:06.461Z,24.44
2023-05-04T09:59:06.429Z,24.43
2023-05-04T10:00:06.399Z,24.43
2023-05-04T10:01:06.375Z,24.42
2023-05-04T10:02:14.582Z,24.40
2023-05-04T10:03:07.436Z,24.40
2023-05-04T10:04:06.335Z,24.39
2023-05-04T10:05:06.652Z,24.39
2023-05-04T10:06:06.282Z,24.39
2023-05-04T10:07:06.251Z,24.40
2023-05-04T10:08:06.236Z,24.37
2023-05-04T10:09:06.259Z,24.34
2023-05-04T10:10:06.201Z,24.34
2023-05-04T10:11:06.221Z,24.34
2023-05-04T10:12:06.157Z,24.34
2023-05-04T10:13:06.187Z,24.33
2023-05-04T10:14:06.112Z,24.32
2023-05-04T10:15:06.294Z,24.31
2023-05-04T10:16:06.161Z,24.30
2023-05-04T10:17:06.169Z,24.30
2023-05-04T10:18:06.189Z,24.30
2023-05-04T10:19:06.242Z,24.30
2023-05-04T10:20:06.274Z,24.28
2023-05-04T10:21:06.371Z,24.29
2023-05-04T10:22:06.329Z,24.29
2023-05-04T10:23:06.405Z,24.29
2023-05-04T10:24:06.437Z,24.28
2023-05-04T10:25:06.559Z,24.28
2023-05-04T10:26:06.573Z,24.28
2023-05-04T10:27:06.603Z,24.28
2023-05-04T10:28:06.610Z,24.29
2023-05-04T10:29:06.611Z,24.29
2023-05-04T10:30:06.648Z,24.30
2023-05-04T10:31:06.680Z,24.30
2023-05-04T10:32:06.835Z,24.29
2023-05-04T10:33:06.837Z,24.31
2023-05-04T10:34:06.831Z,24.31
2023-05-04T10:35:07.031Z,24.31
2023-05-04T10:36:06.924Z,24.31
2023-05-04T10:37:06.940Z,24.32
2023-05-04T10:38:07.074Z,24.32
2023-05-04T10:39:07.007Z,24.32
2023-05-04T10:40:07.963Z,24.32
2023-05-04T10:41:07.158Z,24.32
2023-05-04T10:42:07.127Z,24.31
2023-05-04T10:43:07.288Z,24.31
2023-05-04T10:44:07.193Z,24.31
2023-05-04T10:45:07.249Z,24.31
2023-05-04T10:46:07.290Z,24.29
2023-05-04T10:47:07.389Z,24.30
2023-05-04T10:48:07.386Z,24.31
2023-05-04T10:49:07.369Z,24.32
2023-05-04T10:50:07.445Z,24.31
2023-05-04T10:51:07.456Z,24.31
2023-05-04T10:52:07.575Z,24.31
2023-05-04T10:53:07.560Z,24.31
2023-05-04T10:54:08.323Z,24.30
2023-05-04T10:55:07.702Z,24.30
2023-05-04T10:56:07.621Z,24.29
2023-05-04T10:57:07.675Z,24.28
2023-05-04T10:58:07.631Z,24.28
2023-05-04T10:59:07.929Z,24.28
2023-05-04T11:00:07.643Z,24.26
2023-05-04T11:01:07.632Z,24.26
2023-05-04T11:02:08.386Z,24.27
2023-05-04T11:03:07.669Z,24.26
2023-05-04T11:04:07.551Z,24.27
2023-05-04T11:05:07.873Z,24.27
2023-05-04T11:06:07.665Z,24.28
2023-05-04T11:07:07.572Z,24.28
2023-05-04T11:08:07.677Z,24.28
2023-05-04T11:09:07.674Z,24.27
2023-05-04T11:10:07.715Z,24.27
2023-05-04T11:11:07.725Z,24.28
2023-05-04T11:12:07.793Z,24.28
2023-05-04T11:13:08.188Z,24.28
2023-05-04T11:14:07.829Z,24.28
2023-05-04T11:15:08.106Z,24.28
2023-05-04T11:16:07.921Z,24.28
2023-05-04T11:17:16.009Z,24.28
2023-05-04T11:18:09.104Z,24.30
2023-05-04T11:19:07.955Z,24.30
2023-05-04T11:20:07.891Z,24.28
2023-05-04T11:21:08.028Z,24.29
2023-05-04T11:22:07.832Z,24.28
2023-05-04T11:23:10.337Z,24.28
2023-05-04T11:24:07.982Z,24.29
2023-05-04T11:25:08.023Z,24.30
2023-05-04T11:26:08.062Z,24.30
2023-05-04T11:27:08.234Z,24.31
2023-05-04T11:28:08.823Z,24.31
2023-05-04T11:29:09.146Z,24.30
2023-05-04T11:30:08.924Z,24.31
2023-05-04T11:31:08.064Z,24.32
2023-05-04T11:32:07.976Z,24.32
2023-05-04T11:33:07.974Z,24.32
2023-05-04T11:34:08.134Z,24.32
2023-05-04T11:35:08.224Z,24.33
2023-05-04T11:36:07.940Z,24.32
2023-05-04T11:37:07.891Z,24.32
2023-05-04T11:38:07.884Z,24.32
2023-05-04T11:39:07.911Z,24.32
2023-05-04T11:40:07.845Z,24.33
2023-05-04T11:41:07.829Z,24.33
2023-05-04T11:42:07.826Z,24.32
2023-05-04T11:43:07.791Z,24.33
2023-05-04T11:44:07.812Z,24.33
2023-05-04T11:45:07.802Z,24.33
2023-05-04T11:46:07.863Z,24.32
2023-05-04T11:47:07.734Z,24.33
2023-05-04T11:48:07.791Z,24.32
2023-05-04T11:49:07.703Z,24.32
2023-05-04T11:50:07.721Z,24.32
2023-05-04T11:51:07.676Z,24.32
2023-05-04T11:52:07.769Z,24.32
2023-05-04T11:53:07.673Z,24.32
2023-05-04T11:54:07.677Z,24.32
2023-05-04T11:55:07.894Z,24.32
2023-05-04T11:56:07.733Z,24.33
2023-05-04T11:57:07.727Z,24.33
2023-05-04T11:58:07.749Z,24.33
2023-05-04T11:59:07.752Z,24.32
2023-05-04T12:00:07.854Z,24.32
2023-05-04T12:01:08.397Z,24.32
2023-05-04T12:02:07.853Z,24.32
2023-05-04T12:03:08.156Z,24.32
2023-05-04T12:04:08.217Z,24.32
2023-05-04T12:05:08.241Z,24.32
2023-05-04T12:06:08.020Z,24.32
2023-05-04T12:07:08.046Z,24.32
2023-05-04T12:08:08.079Z,24.31
2023-05-04T12:09:08.138Z,24.31
2023-05-04T12:10:08.182Z,24.31
2023-05-04T12:11:08.175Z,24.31
2023-05-04T12:12:08.229Z,24.30
2023-05-04T12:13:08.313Z,24.31
2023-05-04T12:14:08.261Z,24.31
2023-05-04T12:15:08.469Z,24.32
2023-05-04T12:16:08.350Z,24.32
2023-05-04T12:17:08.333Z,24.32
2023-05-04T12:18:08.416Z,24.32
2023-05-04T12:19:08.471Z,24.32
2023-05-04T12:20:08.454Z,24.32
2023-05-04T12:21:08.482Z,24.32
2023-05-04T12:22:08.517Z,24.32
2023-05-04T12:23:08.654Z,24.31
2023-05-04T12:24:08.584Z,24.32
2023-05-04T12:25:09.009Z,24.32
2023-05-04T12:26:08.623Z,24.32
2023-05-04T12:27:08.614Z,24.31
2023-05-04T12:28:08.601Z,24.31
2023-05-04T12:29:08.630Z,24.31
2023-05-04T12:30:08.578Z,24.31
2023-05-04T12:31:08.557Z,24.30
2023-05-04T12:32:08.548Z,24.30
2023-05-04T12:33:08.564Z,24.31
2023-05-04T12:34:08.547Z,24.30
2023-05-04T12:35:08.777Z,24.30
2023-05-04T12:36:08.457Z,24.30
2023-05-04T12:37:08.439Z,24.29
2023-05-04T12:38:08.467Z,24.29
2023-05-04T12:39:08.450Z,24.29
2023-05-04T12:40:21.207Z,24.28
2023-05-04T12:41:09.426Z,24.29
2023-05-04T12:42:08.422Z,24.29
2023-05-04T12:43:08.399Z,24.28
2023-05-04T12:44:08.388Z,24.29
2023-05-04T12:45:08.521Z,24.29
2023-05-04T12:46:08.393Z,24.29
2023-05-04T12:47:08.341Z,24.29
2023-05-04T12:48:08.388Z,24.29
2023-05-04T12:49:08.383Z,24.28
2023-05-04T12:50:08.321Z,24.30
2023-05-04T12:51:08.290Z,24.29
2023-05-04T12:52:08.309Z,24.29